Time;durP1;ratioP1;P1;durP2;ratioP2;P2;SDS_P1;SDS_P2;PMS_P1;PMS_P2;Temp;Humidity;BMP_temperature;BMP_pressure;BME280_temperature;BME280_humidity;BME280_pressure;Samples;Min_cycle;Max_cycle;Signal;HPM_P1;HPM_P2
2024/03/01 00:01:40;;;;;;;2.55;1.33;;;8.20;99.90;;;;;;5003696;28;20030;-89
2024/03/01 00:04:06;;;;;;;4.30;1.45;;;8.20;99.90;;;;;;4990503;28;20034;-87
2024/03/01 00:06:31;;;;;;;2.40;1.08;;;8.30;99.90;;;;;;4983982;28;20021;-89
2024/03/01 00:08:57;;;;;;;2.38;1.00;;;8.20;99.90;;;;;;4987701;28;20437;-89
2024/03/01 00:11:24;;;;;;;2.35;1.13;;;8.20;99.90;;;;;;5002144;28;20330;-88
2024/03/01 00:13:50;;;;;;;2.85;1.70;;;8.20;99.90;;;;;;4989096;28;20061;-89
2024/03/01 00:16:15;;;;;;;2.30;1.00;;;8.20;99.90;;;;;;4972912;28;20038;-88
2024/03/01 00:18:42;;;;;;;3.72;1.23;;;8.20;99.90;;;;;;4974365;28;20023;-89
2024/03/01 00:21:15;;;;;;;3.05;1.00;;;8.20;99.90;;;;;;4977532;28;20046;-88
2024/03/01 00:23:41;;;;;;;3.50;1.48;;;8.30;99.90;;;;;;5008779;28;20026;-88
2024/03/01 00:26:07;;;;;;;3.17;1.58;;;8.30;99.90;;;;;;4989977;28;20057;-89
2024/03/01 00:28:34;;;;;;;2.88;1.20;;;8.20;99.90;;;;;;4988332;28;20034;-89
2024/03/01 00:30:59;;;;;;;3.03;1.33;;;8.30;99.90;;;;;;4976779;28;20071;-88
2024/03/01 00:33:25;;;;;;;3.40;1.48;;;8.20;99.90;;;;;;4976266;28;20033;-89
2024/03/01 00:35:51;;;;;;;3.22;1.48;;;8.30;99.90;;;;;;4990087;28;20042;-88
2024/03/01 00:38:16;;;;;;;2.92;1.30;;;8.30;99.90;;;;;;4975697;28;20149;-88
2024/03/01 00:40:42;;;;;;;3.67;1.75;;;8.30;99.90;;;;;;4974965;28;20033;-88
2024/03/01 00:43:08;;;;;;;2.08;0.90;;;8.20;99.90;;;;;;4988174;28;20041;-88
2024/03/01 00:45:33;;;;;;;2.60;1.30;;;8.30;99.90;;;;;;4989254;28;20069;-88
2024/03/01 00:47:59;;;;;;;2.47;1.23;;;8.20;99.90;;;;;;4973649;28;20068;-88
2024/03/01 00:50:25;;;;;;;3.28;1.30;;;8.20;99.90;;;;;;4992463;28;20040;-88
2024/03/01 00:52:50;;;;;;;3.25;1.20;;;8.20;99.90;;;;;;5009130;28;20032;-88
2024/03/01 00:55:16;;;;;;;2.50;0.90;;;8.20;99.90;;;;;;4990907;28;20022;-88
2024/03/01 00:57:42;;;;;;;2.05;1.08;;;8.20;99.90;;;;;;4987386;28;20030;-89
2024/03/01 01:00:08;;;;;;;2.53;1.10;;;8.10;99.90;;;;;;4988505;28;20124;-88
2024/03/01 01:02:37;;;;;;;1.98;0.80;;;8.20;99.90;;;;;;4973605;28;20033;-87
2024/03/01 01:05:04;;;;;;;2.42;1.23;;;8.10;99.90;;;;;;5008232;28;20022;-89
2024/03/01 01:07:29;;;;;;;2.92;1.50;;;8.10;99.90;;;;;;4986849;28;20474;-88
2024/03/01 01:09:55;;;;;;;2.58;1.10;;;8.10;99.90;;;;;;4989853;28;20041;-87
2024/03/01 01:12:20;;;;;;;2.25;0.90;;;8.20;99.90;;;;;;4977104;28;20422;-89
2024/03/01 01:14:46;;;;;;;2.95;1.45;;;8.10;99.90;;;;;;4990544;28;20041;-89
2024/03/01 01:17:12;;;;;;;3.25;1.52;;;8.10;99.90;;;;;;4971637;28;20129;-87
2024/03/01 01:19:38;;;;;;;3.30;1.55;;;8.10;99.90;;;;;;5004478;28;20061;-89
2024/03/01 01:22:03;;;;;;;2.20;0.90;;;8.10;99.90;;;;;;4973384;28;20030;-87
2024/03/01 01:24:29;;;;;;;2.80;1.25;;;8.10;99.90;;;;;;4988525;28;20037;-88
2024/03/01 01:26:56;;;;;;;3.17;0.95;;;8.10;99.90;;;;;;4989189;28;20121;-88
2024/03/01 01:29:21;;;;;;;2.83;1.38;;;8.00;99.90;;;;;;4973672;28;20413;-88
2024/03/01 01:31:47;;;;;;;2.88;1.00;;;8.00;99.90;;;;;;4988018;28;20022;-87
2024/03/01 01:34:13;;;;;;;3.03;1.33;;;8.00;99.90;;;;;;4993118;28;20025;-88
2024/03/01 01:36:40;;;;;;;3.13;1.40;;;8.00;99.90;;;;;;4975837;28;20096;-88
2024/03/01 01:39:08;;;;;;;2.47;1.15;;;8.00;99.90;;;;;;4986258;28;20030;-88
2024/03/01 01:41:35;;;;;;;1.95;0.85;;;8.00;99.90;;;;;;4993600;28;20041;-88
2024/03/01 01:44:01;;;;;;;4.97;2.10;;;8.00;99.90;;;;;;4973543;28;20052;-88
2024/03/01 01:46:27;;;;;;;3.95;1.70;;;8.00;99.90;;;;;;4988872;28;20030;-87
2024/03/01 01:48:53;;;;;;;6.18;3.15;;;8.00;99.90;;;;;;4974256;28;22052;-87
2024/03/01 01:51:20;;;;;;;5.80;3.50;;;7.90;99.90;;;;;;4989782;28;20027;-88
2024/03/01 01:53:46;;;;;;;4.72;3.08;;;7.90;99.90;;;;;;4990243;28;20064;-88
2024/03/01 01:56:13;;;;;;;4.03;2.47;;;7.90;99.90;;;;;;5006043;28;20053;-88
2024/03/01 01:58:41;;;;;;;4.55;2.45;;;7.90;99.90;;;;;;4989570;28;20113;-88
2024/03/01 02:01:09;;;;;;;6.32;2.05;;;7.90;99.90;;;;;;5006841;28;20041;-88
2024/03/01 02:03:36;;;;;;;4.03;1.63;;;7.90;99.90;;;;;;4987102;28;20044;-89
2024/03/01 02:06:05;;;;;;;4.65;2.03;;;7.90;99.90;;;;;;4974704;28;20033;-89
2024/03/01 02:08:35;;;;;;;5.55;3.00;;;7.80;99.90;;;;;;4973415;28;20026;-91
2024/03/01 02:11:02;;;;;;;5.47;3.05;;;7.80;99.90;;;;;;4987920;28;20441;-88
2024/03/01 02:13:29;;;;;;;6.43;4.22;;;7.80;99.90;;;;;;4990190;28;20112;-87
2024/03/01 02:15:55;;;;;;;6.72;3.83;;;7.70;99.90;;;;;;4987388;28;20034;-88
2024/03/01 02:18:24;;;;;;;7.00;4.30;;;7.70;99.90;;;;;;4987883;28;20339;-90
2024/03/01 02:21:11;;;;;;;6.93;4.00;;;7.70;99.90;;;;;;4974940;28;20075;-89
2024/03/01 02:23:38;;;;;;;8.15;4.88;;;7.70;99.90;;;;;;4986855;28;20431;-88
2024/03/01 02:26:04;;;;;;;9.10;5.15;;;7.70;99.90;;;;;;4986251;28;20033;-88
2024/03/01 02:28:31;;;;;;;7.80;4.40;;;7.70;99.90;;;;;;4991628;28;20029;-88
2024/03/01 02:30:57;;;;;;;7.72;4.65;;;7.70;99.90;;;;;;4988687;28;20033;-88
2024/03/01 02:33:23;;;;;;;7.80;4.95;;;7.70;99.90;;;;;;4987292;28;20045;-88
2024/03/01 02:35:49;;;;;;;7.40;4.72;;;7.70;99.90;;;;;;5006529;28;20045;-89
2024/03/01 02:38:16;;;;;;;6.65;4.25;;;7.70;99.90;;;;;;4977232;28;20669;-87
2024/03/01 02:40:42;;;;;;;8.27;5.43;;;7.70;99.90;;;;;;4988373;28;20076;-88
2024/03/01 02:43:08;;;;;;;8.15;4.88;;;7.70;99.90;;;;;;4988019;28;20048;-87
2024/03/01 02:45:35;;;;;;;8.52;4.75;;;7.70;99.90;;;;;;4973180;28;20030;-89
2024/03/01 02:48:01;;;;;;;7.03;3.97;;;7.60;99.90;;;;;;4987234;28;20044;-88
2024/03/01 02:50:26;;;;;;;7.63;4.22;;;7.50;99.90;;;;;;4975886;28;20041;-87
2024/03/01 02:52:52;;;;;;;6.47;4.00;;;7.40;99.90;;;;;;4974002;28;20022;-90
2024/03/01 02:55:21;;;;;;;7.10;4.65;;;7.30;99.90;;;;;;4984107;28;20089;-88
2024/03/01 02:57:51;;;;;;;9.07;4.72;;;7.30;99.90;;;;;;4972761;28;20049;-88
2024/03/01 03:00:17;;;;;;;7.53;4.75;;;7.20;99.90;;;;;;4985827;28;20041;-89
2024/03/01 03:02:43;;;;;;;7.75;4.28;;;7.20;99.90;;;;;;4973567;28;20029;-86
2024/03/01 03:05:09;;;;;;;7.55;4.22;;;7.20;99.90;;;;;;4985687;28;20030;-90
2024/03/01 03:07:36;;;;;;;6.97;3.55;;;7.10;99.90;;;;;;5002698;28;20482;-88
2024/03/01 03:10:02;;;;;;;6.00;3.38;;;7.10;99.90;;;;;;4987609;28;20018;-88
2024/03/01 03:12:28;;;;;;;6.68;3.70;;;7.10;99.90;;;;;;4999131;28;20065;-90
2024/03/01 03:14:53;;;;;;;6.75;4.00;;;7.10;99.90;;;;;;4988678;28;20019;-88
2024/03/01 03:17:19;;;;;;;7.05;4.57;;;7.00;99.90;;;;;;4981459;28;20047;-88
2024/03/01 03:19:45;;;;;;;5.50;3.40;;;7.00;99.90;;;;;;4987607;28;20058;-86
2024/03/01 03:22:11;;;;;;;7.15;4.03;;;6.90;99.90;;;;;;4984828;28;20030;-88
2024/03/01 03:24:38;;;;;;;9.35;6.03;;;6.90;99.90;;;;;;4985350;28;20033;-88
2024/03/01 03:27:04;;;;;;;8.43;4.53;;;6.90;99.90;;;;;;4986159;28;20128;-89
2024/03/01 03:29:30;;;;;;;8.68;5.30;;;6.90;99.90;;;;;;4964592;28;20073;-89
2024/03/01 03:31:56;;;;;;;7.97;4.82;;;6.90;99.90;;;;;;4989362;28;20030;-89
2024/03/01 03:34:21;;;;;;;6.70;4.38;;;7.00;99.90;;;;;;4984104;28;20030;-89
2024/03/01 03:36:48;;;;;;;8.77;5.07;;;6.90;99.90;;;;;;4986358;28;20380;-88
2024/03/01 03:39:15;;;;;;;8.20;4.80;;;6.90;99.90;;;;;;4985522;28;20117;-88
2024/03/01 03:41:41;;;;;;;5.78;3.20;;;6.90;99.90;;;;;;4987366;28;20503;-88
2024/03/01 03:44:06;;;;;;;7.32;4.00;;;6.80;99.90;;;;;;4983150;28;20034;-87
2024/03/01 03:46:32;;;;;;;6.00;3.95;;;6.80;99.90;;;;;;4987874;28;20088;-87
2024/03/01 03:48:58;;;;;;;7.20;4.53;;;6.80;99.90;;;;;;5001548;28;20030;-89
2024/03/01 03:51:28;;;;;;;7.88;4.22;;;6.80;99.90;;;;;;4984343;28;20065;-89
2024/03/01 03:53:54;;;;;;;;;;;6.80;99.90;;;;;;4971227;28;20137;-89
2024/03/01 03:56:20;;;;;;;9.85;4.70;;;6.80;99.90;;;;;;5006724;28;20032;-89
2024/03/01 03:58:47;;;;;;;6.28;3.17;;;6.90;99.90;;;;;;4990467;28;20398;-87
2024/03/01 04:01:12;;;;;;;8.18;4.22;;;7.00;99.90;;;;;;5007080;28;20481;-89
2024/03/01 04:03:38;;;;;;;8.13;4.93;;;7.10;99.90;;;;;;4988932;28;20105;-88
2024/03/01 04:06:06;;;;;;;6.95;4.10;;;7.20;99.90;;;;;;4974556;28;20023;-89
2024/03/01 04:08:32;;;;;;;7.63;4.38;;;7.20;99.90;;;;;;5005673;28;20035;-92
2024/03/01 04:11:05;;;;;;;7.35;4.53;;;7.20;99.90;;;;;;4989662;28;20391;-88
2024/03/01 04:13:40;;;;;;;7.57;4.30;;;7.20;99.90;;;;;;5005917;28;20038;-89
2024/03/01 04:16:06;;;;;;;7.95;3.75;;;7.20;99.90;;;;;;5000560;28;20022;-87
2024/03/01 04:18:33;;;;;;;7.47;3.88;;;7.30;99.90;;;;;;4988223;28;20031;-89
2024/03/01 04:21:00;;;;;;;6.72;3.72;;;7.30;99.90;;;;;;4986165;28;20041;-86
2024/03/01 04:23:26;;;;;;;7.78;3.83;;;7.30;99.90;;;;;;5001938;28;20034;-90
2024/03/01 04:25:53;;;;;;;7.57;4.53;;;7.30;99.90;;;;;;4970290;28;20077;-89
2024/03/01 04:28:20;;;;;;;11.27;5.15;;;7.40;99.90;;;;;;5005236;28;20125;-88
2024/03/01 04:30:46;;;;;;;6.85;4.15;;;7.40;99.90;;;;;;4971811;28;20433;-87
2024/03/01 04:33:12;;;;;;;6.68;3.60;;;7.40;99.90;;;;;;4974636;28;20050;-89
2024/03/01 04:35:39;;;;;;;7.75;3.08;;;7.40;99.90;;;;;;4990220;28;20034;-89
2024/03/01 04:38:06;;;;;;;5.90;3.20;;;7.50;99.90;;;;;;4988561;28;20616;-90
2024/03/01 04:40:32;;;;;;;6.50;3.70;;;7.50;99.90;;;;;;4989442;28;20061;-88
2024/03/01 04:42:59;;;;;;;5.45;3.35;;;7.50;99.90;;;;;;4988046;28;20054;-91
2024/03/01 04:45:25;;;;;;;5.35;2.95;;;7.60;99.90;;;;;;4970018;28;20023;-90
2024/03/01 04:47:51;;;;;;;7.70;4.15;;;7.60;99.90;;;;;;4990266;28;20034;-90
2024/03/01 04:50:17;;;;;;;8.73;4.45;;;7.60;99.90;;;;;;4988438;28;20489;-90
2024/03/01 04:52:42;;;;;;;7.80;4.07;;;7.70;99.90;;;;;;4988440;28;20081;-89
2024/03/01 04:55:09;;;;;;;8.10;5.22;;;7.70;99.90;;;;;;4990825;28;20489;-89
2024/03/01 04:57:35;;;;;;;7.45;4.07;;;7.70;99.90;;;;;;5004058;28;20034;-90
2024/03/01 05:00:13;;;;;;;6.07;3.40;;;7.70;99.90;;;;;;4990472;28;20553;-90
2024/03/01 05:02:43;;;;;;;4.22;2.63;;;7.80;99.90;;;;;;4988457;28;20230;-90
2024/03/01 05:05:14;;;;;;;4.47;2.23;;;7.80;99.90;;;;;;4988857;28;20049;-87
2024/03/01 05:07:40;;;;;;;4.03;1.83;;;7.90;99.90;;;;;;5005457;28;20030;-89
2024/03/01 05:10:10;;;;;;;3.55;2.05;;;7.90;99.90;;;;;;4988302;28;20088;-89
2024/03/01 05:12:39;;;;;;;3.05;1.35;;;7.90;99.90;;;;;;4989928;28;20058;-89
2024/03/01 05:15:07;;;;;;;2.13;1.00;;;7.90;99.90;;;;;;4989775;28;20030;-87
2024/03/01 05:17:39;;;;;;;2.63;1.20;;;7.90;99.90;;;;;;4983158;28;20038;-87
2024/03/01 05:20:10;;;;;;;2.55;0.82;;;7.90;99.90;;;;;;4989212;28;20018;-87
2024/03/01 05:22:39;;;;;;;1.77;0.80;;;7.90;99.90;;;;;;4983105;28;20037;-87
2024/03/01 05:25:17;;;;;;;1.77;0.50;;;7.80;99.90;;;;;;5004977;28;20050;-86
2024/03/01 05:27:48;;;;;;;2.72;1.73;;;7.80;99.90;;;;;;4988007;28;20038;-87
2024/03/01 05:30:19;;;;;;;2.13;1.13;;;7.80;99.90;;;;;;4986137;28;20026;-86
2024/03/01 05:32:46;;;;;;;2.67;2.08;;;7.80;99.90;;;;;;4987782;28;20062;-86
2024/03/01 05:35:13;;;;;;;1.80;1.13;;;7.70;99.90;;;;;;5004210;28;20065;-89
2024/03/01 05:37:40;;;;;;;1.98;0.90;;;7.70;99.90;;;;;;4986594;28;20076;-88
2024/03/01 05:40:10;;;;;;;2.75;1.95;;;7.70;99.90;;;;;;4984171;28;20031;-88
2024/03/01 05:42:37;;;;;;;2.80;1.85;;;7.70;99.90;;;;;;4989654;28;20062;-90
2024/03/01 05:45:06;;;;;;;3.10;1.65;;;7.60;99.90;;;;;;4970446;28;20039;-89
2024/03/01 05:47:32;;;;;;;3.40;2.50;;;7.60;99.90;;;;;;4987734;28;20038;-89
2024/03/01 05:49:57;;;;;;;3.63;2.67;;;7.60;99.90;;;;;;4985492;28;20031;-90
2024/03/01 05:52:23;;;;;;;2.40;1.65;;;7.50;99.90;;;;;;4991211;28;20038;-91
2024/03/01 05:54:49;;;;;;;3.95;1.70;;;7.40;99.90;;;;;;4970497;28;20033;-91
2024/03/01 05:57:15;;;;;;;2.65;1.30;;;7.40;99.90;;;;;;4990371;28;20320;-93
2024/03/01 05:59:41;;;;;;;2.38;1.08;;;7.30;99.90;;;;;;4974645;28;20045;-89
2024/03/01 06:02:07;;;;;;;1.77;0.85;;;7.20;99.90;;;;;;4988869;28;20030;-90
2024/03/01 06:04:34;;;;;;;2.50;0.90;;;7.20;99.90;;;;;;4989121;28;20033;-91
2024/03/01 06:06:59;;;;;;;1.55;0.60;;;7.20;99.90;;;;;;4987959;28;20041;-89
2024/03/01 06:09:25;;;;;;;2.00;0.80;;;7.10;99.90;;;;;;4968953;28;20042;-90
2024/03/01 06:11:51;;;;;;;3.30;1.27;;;7.00;99.90;;;;;;4988628;28;20058;-91
2024/03/01 06:14:17;;;;;;;3.03;0.90;;;7.00;99.90;;;;;;4990604;28;20026;-91
2024/03/01 06:16:44;;;;;;;3.00;1.13;;;7.00;99.90;;;;;;4987583;28;20368;-90
2024/03/01 06:19:09;;;;;;;4.63;1.98;;;7.00;99.90;;;;;;5004544;28;20030;-89
2024/03/01 06:21:35;;;;;;;7.00;2.88;;;7.00;99.90;;;;;;4987723;28;20026;-92
2024/03/01 06:24:00;;;;;;;4.68;3.38;;;7.00;99.90;;;;;;4985507;28;20046;-91
2024/03/01 06:26:26;;;;;;;4.45;2.45;;;7.00;99.90;;;;;;4988928;28;20034;-91
2024/03/01 06:28:52;;;;;;;3.70;2.50;;;7.00;99.90;;;;;;4988259;28;20029;-90
2024/03/01 06:31:17;;;;;;;3.80;2.17;;;7.00;99.90;;;;;;4981599;28;20054;-90
2024/03/01 06:33:43;;;;;;;4.75;3.15;;;7.00;99.90;;;;;;5003603;28;20445;-88
2024/03/01 06:36:09;;;;;;;8.80;4.95;;;7.00;99.90;;;;;;4989803;28;20026;-90
2024/03/01 06:38:38;;;;;;;5.50;4.03;;;7.00;99.90;;;;;;4987428;28;20505;-91
2024/03/01 06:41:05;;;;;;;7.70;5.50;;;7.00;99.90;;;;;;4970217;28;20478;-91
2024/03/01 06:43:31;;;;;;;6.85;4.72;;;7.00;99.90;;;;;;4988811;28;20406;-91
2024/03/01 06:45:57;;;;;;;4.25;2.97;;;7.00;99.90;;;;;;5003416;28;20549;-90
2024/03/01 06:48:23;;;;;;;8.30;5.25;;;7.00;99.90;;;;;;4985353;28;20030;-92
2024/03/01 06:50:48;;;;;;;4.53;3.42;;;7.00;99.90;;;;;;5005034;28;20030;-92
2024/03/01 06:53:14;;;;;;;4.13;2.67;;;7.00;99.90;;;;;;4983043;28;20026;-90
2024/03/01 06:55:40;;;;;;;4.03;2.13;;;7.10;99.90;;;;;;4988187;28;20471;-89
2024/03/01 06:58:05;;;;;;;2.30;1.13;;;7.00;99.90;;;;;;4986677;28;20490;-90
2024/03/01 07:00:32;;;;;;;2.33;0.93;;;7.00;99.90;;;;;;5002664;28;20102;-90
2024/03/01 07:02:58;;;;;;;4.18;0.80;;;7.00;99.90;;;;;;5005134;28;20105;-91
2024/03/01 07:05:23;;;;;;;4.10;1.17;;;7.00;99.90;;;;;;4986356;28;20125;-91
2024/03/01 07:07:49;;;;;;;2.47;0.70;;;7.00;99.90;;;;;;5001066;28;20251;-91
2024/03/01 07:10:15;;;;;;;1.83;0.70;;;7.00;99.90;;;;;;4989102;28;20073;-91
2024/03/01 07:12:40;;;;;;;1.67;0.65;;;7.00;99.90;;;;;;4988774;28;20057;-91
2024/03/01 07:15:11;;;;;;;3.00;0.68;;;7.10;99.90;;;;;;5005862;28;20076;-91
2024/03/01 07:17:36;;;;;;;1.77;0.60;;;7.00;99.90;;;;;;4987881;28;20133;-91
2024/03/01 07:20:02;;;;;;;1.30;0.50;;;7.10;99.90;;;;;;4985056;28;20113;-91
2024/03/01 07:22:28;;;;;;;2.83;0.45;;;7.10;99.90;;;;;;5001203;28;20034;-90
2024/03/01 07:24:53;;;;;;;2.38;0.50;;;7.20;99.90;;;;;;4969798;28;20023;-90
2024/03/01 07:27:19;;;;;;;1.48;0.60;;;7.20;99.90;;;;;;5003630;28;20180;-89
2024/03/01 07:29:45;;;;;;;1.50;0.40;;;7.10;99.90;;;;;;4986318;28;20042;-90
2024/03/01 07:32:10;;;;;;;1.83;0.50;;;7.10;99.90;;;;;;4984237;28;20022;-91
2024/03/01 07:34:36;;;;;;;1.92;0.43;;;7.10;99.90;;;;;;4987822;28;20184;-90
2024/03/01 07:37:01;;;;;;;2.40;0.45;;;7.10;99.90;;;;;;4983743;28;20120;-90
2024/03/01 07:39:27;;;;;;;1.55;0.50;;;7.10;99.90;;;;;;4983715;28;20031;-90
2024/03/01 07:41:55;;;;;;;2.03;0.55;;;7.10;99.90;;;;;;4986245;28;20047;-90
2024/03/01 07:44:20;;;;;;;3.47;0.60;;;7.00;99.90;;;;;;5000694;28;20022;-90
2024/03/01 07:46:46;;;;;;;1.70;0.60;;;7.10;99.90;;;;;;4982047;28;20454;-90
2024/03/01 07:49:15;;;;;;;1.27;0.60;;;7.00;99.90;;;;;;4977429;28;20557;-92
2024/03/01 07:51:40;;;;;;;1.67;0.70;;;7.00;99.90;;;;;;4982569;28;20030;-92
2024/03/01 07:54:06;;;;;;;1.38;0.50;;;7.00;99.90;;;;;;4981612;28;20026;-91
2024/03/01 07:56:34;;;;;;;2.03;0.50;;;6.90;99.90;;;;;;5003375;28;20031;-90
2024/03/01 07:59:04;;;;;;;1.60;0.43;;;7.00;99.90;;;;;;4985679;28;20034;-91
2024/03/01 08:01:33;;;;;;;1.30;0.40;;;6.90;99.90;;;;;;4968207;28;20068;-91
2024/03/01 08:03:58;;;;;;;1.40;0.50;;;7.00;99.90;;;;;;4964095;28;20054;-93
2024/03/01 08:06:24;;;;;;;1.90;0.60;;;7.00;99.90;;;;;;4984183;28;20069;-91
2024/03/01 08:08:50;;;;;;;1.80;0.60;;;7.00;99.90;;;;;;4987700;28;20035;-91
2024/03/01 08:11:21;;;;;;;3.05;1.02;;;7.00;99.90;;;;;;5003135;28;20451;-91
2024/03/01 08:13:49;;;;;;;1.88;0.70;;;7.10;99.90;;;;;;5005747;28;20026;-90
2024/03/01 08:16:19;;;;;;;1.67;0.60;;;7.10;99.90;;;;;;4975166;28;20021;-90
2024/03/01 08:18:45;;;;;;;2.55;0.80;;;7.10;99.90;;;;;;4971043;28;20038;-91
2024/03/01 08:21:15;;;;;;;2.25;0.60;;;7.10;99.90;;;;;;4987653;28;20030;-93
2024/03/01 08:23:43;;;;;;;1.75;0.60;;;7.20;99.90;;;;;;4979285;28;20258;-92
2024/03/01 08:26:23;;;;;;;2.22;0.50;;;7.20;99.90;;;;;;5003414;28;20034;-91
2024/03/01 08:28:49;;;;;;;1.60;0.57;;;7.20;99.90;;;;;;4990326;28;20034;-90
2024/03/01 08:31:26;;;;;;;1.85;0.60;;;7.30;99.90;;;;;;5007889;28;20036;-91
2024/03/01 08:34:06;;;;;;;1.60;0.60;;;7.30;99.90;;;;;;4985669;28;20025;-92
2024/03/01 08:36:32;;;;;;;;;;;7.40;99.90;;;;;;4988251;28;20018;-92
2024/03/01 08:39:05;;;;;;;2.35;0.90;;;7.30;99.90;;;;;;4987910;28;19996;-92
2024/03/01 08:41:32;;;;;;;3.72;1.20;;;7.30;99.90;;;;;;4989450;28;20069;-92
2024/03/01 08:43:58;;;;;;;5.47;2.75;;;7.30;99.90;;;;;;5004454;28;20033;-91
2024/03/01 08:46:30;;;;;;;4.75;2.40;;;7.30;99.90;;;;;;4989446;28;20030;-90
2024/03/01 08:48:57;;;;;;;4.38;2.53;;;7.50;99.90;;;;;;4976661;28;20030;-92
2024/03/01 08:51:24;;;;;;;4.88;3.42;;;7.80;99.90;;;;;;4976079;28;20034;-93
2024/03/01 08:53:58;;;;;;;7.32;4.07;;;7.80;99.90;;;;;;4993324;28;20036;-90
2024/03/01 08:56:35;;;;;;;4.57;3.33;;;7.90;99.90;;;;;;4993093;28;20997;-93
2024/03/01 08:59:04;;;;;;;6.50;4.90;;;8.20;99.90;;;;;;4989845;28;20030;-90
2024/03/01 09:01:46;;;;;;;5.45;4.32;;;8.20;99.90;;;;;;4995059;28;20079;-91
2024/03/01 09:04:13;;;;;;;8.80;5.68;;;8.30;99.90;;;;;;4993858;28;20038;-91
2024/03/01 09:06:40;;;;;;;4.72;3.17;;;8.10;99.90;;;;;;4993608;28;20039;-93
2024/03/01 09:09:19;;;;;;;5.18;3.30;;;8.30;99.90;;;;;;5004506;28;20026;-93
2024/03/01 09:11:45;;;;;;;9.60;6.03;;;8.80;99.90;;;;;;4974055;28;20046;-90
2024/03/01 09:14:26;;;;;;;6.47;4.40;;;8.40;99.90;;;;;;4988766;28;20033;-91
2024/03/01 09:16:52;;;;;;;5.25;3.95;;;8.30;99.90;;;;;;4975013;28;20026;-91
2024/03/01 09:19:22;;;;;;;4.95;3.08;;;8.60;99.90;;;;;;4989845;28;20029;-91
2024/03/01 09:21:48;;;;;;;3.70;2.53;;;8.60;99.90;;;;;;4972372;28;20061;-91
2024/03/01 09:24:16;;;;;;;4.97;2.78;;;8.50;99.90;;;;;;4992656;28;20080;-94
2024/03/01 09:26:42;;;;;;;3.78;2.90;;;8.50;99.90;;;;;;4990682;28;20026;-91
2024/03/01 09:29:20;;;;;;;5.22;3.95;;;8.20;99.90;;;;;;4989637;28;20361;-91
2024/03/01 09:31:45;;;;;;;5.18;3.22;;;8.00;99.90;;;;;;5007569;28;20026;-91
2024/03/01 09:34:16;;;;;;;3.58;2.45;;;8.00;99.90;;;;;;4974009;28;20332;-93
2024/03/01 09:36:42;;;;;;;3.38;2.08;;;8.00;99.90;;;;;;4991470;28;20052;-91
2024/03/01 09:39:11;;;;;;;4.30;2.58;;;8.10;99.90;;;;;;5008032;28;20030;-91
2024/03/01 09:41:55;;;;;;;5.40;2.78;;;8.10;99.90;;;;;;4994155;28;20045;-90
2024/03/01 09:44:29;;;;;;;4.70;3.58;;;8.20;99.90;;;;;;5008320;28;20034;-90
2024/03/01 09:47:04;;;;;;;5.60;3.50;;;8.20;99.90;;;;;;4986027;28;20034;-90
2024/03/01 09:49:50;;;;;;;6.95;2.85;;;8.30;99.90;;;;;;4991998;28;20065;-93
2024/03/01 09:52:42;;;;;;;3.92;2.40;;;8.20;99.90;;;;;;5005855;28;20111;-91
2024/03/01 09:55:32;;;;;;;3.83;2.03;;;8.50;99.90;;;;;;4974675;28;20065;-90
2024/03/01 09:58:24;;;;;;;3.47;1.98;;;8.90;99.90;;;;;;4987543;28;20038;-88
2024/03/01 10:00:56;;;;;;;3.90;1.70;;;9.00;99.90;;;;;;4987047;28;20026;-90
2024/03/01 10:03:48;;;;;;;4.28;1.77;;;9.00;99.90;;;;;;5007035;28;20027;-88
2024/03/01 10:06:30;;;;;;;3.03;1.15;;;9.00;99.90;;;;;;4973435;28;20483;-89
2024/03/01 10:09:11;;;;;;;3.20;1.45;;;9.10;99.90;;;;;;4989622;28;20036;-91
2024/03/01 10:11:45;;;;;;;2.40;1.17;;;8.80;99.90;;;;;;5007616;28;20030;-89
2024/03/01 10:14:18;;;;;;;1.95;0.80;;;8.90;99.90;;;;;;4991258;28;20556;-88
2024/03/01 10:17:22;;;;;;;2.45;0.85;;;8.80;99.90;;;;;;4986579;28;20481;-88
2024/03/01 10:20:24;;;;;;;5.35;1.27;;;9.20;99.90;;;;;;4999468;28;20035;-89
2024/03/01 10:23:22;;;;;;;3.33;1.00;;;9.20;99.90;;;;;;5004090;28;20029;-88
2024/03/01 10:26:10;;;;;;;3.08;0.93;;;8.80;99.90;;;;;;4985769;28;20219;-88
2024/03/01 10:29:14;;;;;;;2.13;0.60;;;8.70;99.90;;;;;;5006565;28;20025;-87
2024/03/01 10:31:53;;;;;;;4.60;1.45;;;8.70;99.90;;;;;;4931010;29;20031;-89
2024/03/01 10:34:25;;;;;;;3.03;1.50;;;8.60;99.90;;;;;;4998489;28;20489;-88
2024/03/01 10:36:54;;;;;;;3.88;0.93;;;8.70;99.90;;;;;;5004785;28;20038;-89
2024/03/01 10:39:23;;;;;;;2.92;1.10;;;9.00;99.90;;;;;;4991157;28;20042;-90
2024/03/01 10:42:15;;;;;;;5.45;1.17;;;9.20;99.90;;;;;;4989465;28;20037;-89
2024/03/01 10:45:03;;;;;;;3.15;1.00;;;9.70;99.90;;;;;;4991619;28;20041;-90
2024/03/01 10:47:30;;;;;;;1.92;0.70;;;9.90;99.90;;;;;;4990308;28;20037;-88
2024/03/01 10:50:05;;;;;;;3.00;0.93;;;9.90;99.90;;;;;;4974751;28;20026;-90
2024/03/01 10:52:44;;;;;;;3.72;1.00;;;9.70;99.90;;;;;;4988125;28;20489;-88
2024/03/01 10:55:24;;;;;;;4.25;1.30;;;10.00;99.90;;;;;;4987005;28;20030;-89
2024/03/01 10:58:04;;;;;;;4.18;1.08;;;10.40;99.90;;;;;;4990252;28;20046;-91
2024/03/01 11:00:31;;;;;;;2.83;0.50;;;10.80;99.90;;;;;;4990026;28;20053;-91
2024/03/01 11:03:28;;;;;;;2.67;0.60;;;10.80;99.90;;;;;;4987434;28;20508;-91
2024/03/01 11:06:34;;;;;;;2.10;0.45;;;10.50;99.90;;;;;;4991533;28;20486;-88
2024/03/01 11:09:29;;;;;;;1.90;0.50;;;10.60;99.90;;;;;;4989917;28;20034;-88
2024/03/01 11:12:11;;;;;;;3.35;0.50;;;10.80;99.90;;;;;;4987621;28;20053;-88
2024/03/01 11:14:44;;;;;;;3.15;0.50;;;11.00;99.90;;;;;;4990830;28;20030;-90
2024/03/01 11:17:11;;;;;;;1.90;0.50;;;10.90;99.90;;;;;;4972284;28;20053;-89
2024/03/01 11:19:41;;;;;;;1.63;0.60;;;10.60;99.90;;;;;;4989093;28;20061;-90
2024/03/01 11:22:24;;;;;;;1.90;0.40;;;10.80;99.90;;;;;;4976711;28;20103;-91
2024/03/01 11:25:12;;;;;;;2.33;0.40;;;10.70;99.90;;;;;;4985446;28;20118;-91
2024/03/01 11:28:04;;;;;;;1.30;0.30;;;10.60;99.90;;;;;;4985991;28;20044;-89
2024/03/01 11:30:35;;;;;;;2.45;0.52;;;10.90;99.90;;;;;;4982483;28;20120;-89
2024/03/01 11:33:04;;;;;;;3.70;0.50;;;10.50;99.90;;;;;;4987364;28;20041;-88
2024/03/01 11:35:35;;;;;;;3.72;0.50;;;10.50;99.90;;;;;;4987990;28;20058;-90
2024/03/01 11:38:26;;;;;;;1.33;0.40;;;10.60;99.90;;;;;;4974673;28;20116;-91
2024/03/01 11:41:04;;;;;;;1.95;0.32;;;10.60;99.90;;;;;;4988452;28;20077;-88
2024/03/01 11:43:53;;;;;;;1.92;0.40;;;10.70;99.90;;;;;;5001030;28;20069;-91
2024/03/01 11:46:28;;;;;;;1.45;0.30;;;10.60;99.90;;;;;;4988491;28;20120;-91
2024/03/01 11:49:02;;;;;;;1.38;0.40;;;10.90;99.90;;;;;;4974649;28;20482;-93
2024/03/01 11:51:38;;;;;;;2.67;0.40;;;11.00;99.90;;;;;;4991638;28;20038;-90
2024/03/01 11:54:10;;;;;;;3.92;0.47;;;11.10;99.90;;;;;;4973259;28;20034;-89
2024/03/01 11:57:09;;;;;;;2.60;0.40;;;10.90;99.90;;;;;;4971538;28;20029;-86
2024/03/01 12:00:00;;;;;;;1.67;0.40;;;10.90;99.90;;;;;;4984195;28;20041;-88
2024/03/01 12:02:54;;;;;;;1.92;0.50;;;11.10;99.90;;;;;;4985467;28;20061;-90
2024/03/01 12:05:30;;;;;;;1.38;0.47;;;10.70;99.90;;;;;;4990930;28;20038;-91
2024/03/01 12:08:36;;;;;;;1.73;0.40;;;11.00;99.90;;;;;;4988995;28;20053;-90
2024/03/01 12:11:33;;;;;;;1.70;0.40;;;11.00;99.90;;;;;;4989748;28;20076;-92
2024/03/01 12:14:04;;;;;;;1.75;0.40;;;11.00;99.90;;;;;;4970309;28;20049;-91
2024/03/01 12:16:43;;;;;;;1.73;0.30;;;11.20;99.90;;;;;;4976365;28;20034;-89
2024/03/01 12:19:15;;;;;;;2.20;0.45;;;11.20;99.90;;;;;;4989990;28;20048;-93
2024/03/01 12:22:09;;;;;;;2.15;0.38;;;11.10;99.90;;;;;;5012426;28;20034;-91
2024/03/01 12:24:38;;;;;;;1.98;0.40;;;11.00;99.90;;;;;;5003705;28;20037;-90
2024/03/01 12:27:39;;;;;;;2.60;0.30;;;10.90;99.90;;;;;;4992775;28;20033;-91
2024/03/01 12:30:30;;;;;;;2.30;0.30;;;11.10;99.90;;;;;;5009854;28;20022;-90
2024/03/01 12:33:30;;;;;;;0.90;0.30;;;11.10;99.90;;;;;;4994552;28;20072;-91
2024/03/01 12:36:01;;;;;;;0.95;0.20;;;11.10;99.90;;;;;;4991877;28;20476;-91
2024/03/01 12:38:35;;;;;;;1.40;0.13;;;11.00;99.90;;;;;;4991068;28;20057;-92
2024/03/01 12:41:30;;;;;;;1.30;0.20;;;11.10;99.90;;;;;;4994242;28;20026;-91
2024/03/01 12:44:08;;;;;;;0.80;0.22;;;11.10;99.90;;;;;;4978654;28;20030;-91
2024/03/01 12:46:56;;;;;;;1.60;0.30;;;11.10;99.90;;;;;;4992638;28;20072;-94
2024/03/01 12:49:32;;;;;;;0.77;0.20;;;11.30;99.90;;;;;;4979537;28;20033;-89
2024/03/01 12:52:08;;;;;;;0.98;0.20;;;11.20;99.90;;;;;;4989597;28;20053;-90
2024/03/01 12:54:43;;;;;;;0.47;0.10;;;11.00;99.90;;;;;;4991061;28;20040;-89
2024/03/01 12:57:43;;;;;;;1.42;0.20;;;11.00;99.90;;;;;;4976900;28;20038;-90
2024/03/01 13:00:15;;;;;;;0.50;0.20;;;11.00;99.90;;;;;;5011055;28;20049;-94
2024/03/01 13:02:55;;;;;;;1.42;0.15;;;11.10;99.90;;;;;;5007612;28;20301;-90
2024/03/01 13:05:36;;;;;;;1.05;0.10;;;11.00;99.90;;;;;;4991676;28;20038;-92
2024/03/01 13:08:07;;;;;;;1.02;0.20;;;11.00;99.90;;;;;;4991789;28;20150;-91
2024/03/01 13:10:34;;;;;;;0.38;0.10;;;10.90;99.90;;;;;;4970649;28;20034;-94
2024/03/01 13:13:15;;;;;;;0.57;0.10;;;10.90;99.90;;;;;;4991549;28;20045;-91
2024/03/01 13:15:54;;;;;;;0.30;0.10;;;10.80;99.90;;;;;;4976622;28;20033;-92